createdAt,value
2023-05-12T00:00:31.648Z,6.96
2023-05-12T00:03:12.465Z,6.92
2023-05-12T00:05:39.711Z,6.87
2023-05-12T00:08:07.498Z,6.85
2023-05-12T00:10:35.745Z,6.79
2023-05-12T00:13:03.650Z,6.72
2023-05-12T00:15:30.707Z,6.69
2023-05-12T00:17:59.544Z,6.63
2023-05-12T00:20:27.056Z,6.60
2023-05-12T00:22:54.388Z,6.57
2023-05-12T00:25:21.435Z,6.55
2023-05-12T00:27:48.757Z,6.52
2023-05-12T00:30:16.004Z,6.51
2023-05-12T00:32:43.505Z,6.46
2023-05-12T00:35:10.525Z,6.43
2023-05-12T00:37:38.081Z,6.39
2023-05-12T00:40:05.619Z,6.34
2023-05-12T00:42:35.182Z,6.33
2023-05-12T00:45:03.404Z,6.32
2023-05-12T00:47:31.135Z,6.32
2023-05-12T00:50:00.555Z,6.28
2023-05-12T00:52:28.078Z,6.23
2023-05-12T00:54:55.560Z,6.21
2023-05-12T00:57:26.006Z,6.17
2023-05-12T00:59:52.996Z,6.13
2023-05-12T01:02:20.899Z,6.07
2023-05-12T01:04:48.038Z,6.08
2023-05-12T01:07:22.923Z,6.10
2023-05-12T01:09:57.439Z,6.06
2023-05-12T01:12:25.642Z,6.03
2023-05-12T01:14:55.247Z,6.00
2023-05-12T01:17:36.124Z,5.96
2023-05-12T01:20:07.358Z,5.92
2023-05-12T01:22:36.706Z,5.91
2023-05-12T01:25:08.152Z,5.90
2023-05-12T01:27:39.704Z,5.86
2023-05-12T01:30:07.971Z,5.81
2023-05-12T01:32:37.056Z,5.73
2023-05-12T01:35:04.544Z,5.72
2023-05-12T01:37:32.023Z,5.70
2023-05-12T01:39:59.055Z,5.68
2023-05-12T01:42:26.516Z,5.64
2023-05-12T01:44:53.504Z,5.59
2023-05-12T01:47:21.757Z,5.57
2023-05-12T01:49:49.072Z,5.55
2023-05-12T01:52:16.484Z,5.54
2023-05-12T01:54:43.496Z,5.52
2023-05-12T01:57:10.927Z,5.51
2023-05-12T01:59:37.930Z,5.51
2023-05-12T02:02:05.930Z,5.50
2023-05-12T02:04:33.179Z,5.47
2023-05-12T02:07:01.091Z,5.46
2023-05-12T02:09:28.017Z,5.42
2023-05-12T02:11:55.430Z,5.38
2023-05-12T02:14:22.479Z,5.36
2023-05-12T02:22:26.540Z,5.28
2023-05-12T02:24:53.619Z,5.26
2023-05-12T02:27:20.979Z,5.25
2023-05-12T02:29:48.082Z,5.25
2023-05-12T02:32:15.458Z,5.20
2023-05-12T02:34:42.481Z,5.18
2023-05-12T02:37:11.645Z,5.14
2023-05-12T02:39:38.678Z,5.15
2023-05-12T02:42:07.262Z,5.16
2023-05-12T02:44:34.402Z,5.18
2023-05-12T02:47:01.875Z,5.22
2023-05-12T02:49:28.877Z,5.24
2023-05-12T02:54:40.184Z,5.30
2023-05-12T02:57:07.700Z,5.34
2023-05-12T02:59:34.716Z,5.39
2023-05-12T03:02:02.469Z,5.49
2023-05-12T03:04:30.621Z,5.66
2023-05-12T03:06:58.044Z,5.89
2023-05-12T03:09:25.677Z,6.15
2023-05-12T03:11:53.055Z,6.44
2023-05-12T03:14:20.043Z,6.68
2023-05-12T03:16:47.602Z,6.99
2023-05-12T03:19:14.736Z,7.30
2023-05-12T03:21:42.516Z,7.61
2023-05-12T03:24:09.750Z,7.84
2023-05-12T03:26:37.227Z,8.12
2023-05-12T03:29:04.228Z,8.49
2023-05-12T03:31:31.600Z,8.88
2023-05-12T03:33:58.602Z,9.30
2023-05-12T03:36:27.112Z,9.67
2023-05-12T03:38:54.194Z,9.99
2023-05-12T03:41:22.159Z,10.26
2023-05-12T03:43:49.510Z,10.52
2023-05-12T03:46:16.960Z,10.69
2023-05-12T03:48:44.087Z,10.85
2023-05-12T03:51:11.624Z,11.05
2023-05-12T03:53:44.703Z,11.21
2023-05-12T03:56:12.292Z,11.40
2023-05-12T03:58:40.772Z,11.67
2023-05-12T04:01:08.740Z,12.04
2023-05-12T04:03:36.131Z,12.41
2023-05-12T04:06:04.643Z,12.75
2023-05-12T04:08:31.761Z,13.08
2023-05-12T04:11:01.150Z,13.35
2023-05-12T04:13:35.535Z,13.63
2023-05-12T04:16:07.289Z,13.95
2023-05-12T04:18:40.342Z,14.26
2023-05-12T04:21:10.344Z,14.59
2023-05-12T04:23:37.550Z,14.84
2023-05-12T04:26:05.452Z,15.11
2023-05-12T04:28:32.718Z,15.36
2023-05-12T04:31:06.846Z,15.59
2023-05-12T04:33:33.904Z,15.91
2023-05-12T04:36:02.655Z,16.16
2023-05-12T04:38:30.017Z,16.51
2023-05-12T04:40:59.301Z,16.84
2023-05-12T04:46:00.350Z,17.21
2023-05-12T04:48:48.224Z,17.53
2023-05-12T04:51:39.485Z,17.96
2023-05-12T04:54:16.293Z,18.26
2023-05-12T04:56:49.614Z,18.48
2023-05-12T04:59:20.131Z,18.77
2023-05-12T05:01:48.655Z,19.07
2023-05-12T05:04:21.058Z,19.17
2023-05-12T05:06:52.461Z,19.34
2023-05-12T05:09:19.977Z,19.45
2023-05-12T05:11:47.760Z,19.59
2023-05-12T05:14:17.454Z,19.61
2023-05-12T05:16:46.007Z,19.79
2023-05-12T05:19:21.454Z,20.00
2023-05-12T05:21:58.233Z,20.16
2023-05-12T05:24:26.634Z,20.31
2023-05-12T05:26:54.106Z,20.50
2023-05-12T05:29:29.185Z,20.63
2023-05-12T05:31:56.863Z,20.87
2023-05-12T05:34:24.541Z,21.04
2023-05-12T05:36:56.165Z,20.93
2023-05-12T05:39:25.626Z,20.58
2023-05-12T05:41:52.730Z,20.08
2023-05-12T05:44:20.228Z,19.50
2023-05-12T05:46:50.028Z,18.86
2023-05-12T05:49:18.812Z,18.24
2023-05-12T05:51:46.711Z,17.77
2023-05-12T05:54:17.129Z,17.50
2023-05-12T05:56:44.229Z,17.22
2023-05-12T05:59:14.326Z,16.99
2023-05-12T06:01:42.005Z,16.82
2023-05-12T06:04:12.196Z,16.63
2023-05-12T06:06:39.878Z,16.40
2023-05-12T06:09:09.723Z,16.13
2023-05-12T06:11:36.970Z,15.93
2023-05-12T06:14:05.165Z,15.79
2023-05-12T06:16:33.090Z,15.74
2023-05-12T06:19:00.941Z,15.67
2023-05-12T06:21:28.202Z,15.65
2023-05-12T06:23:57.069Z,15.60
2023-05-12T06:26:24.153Z,15.58
2023-05-12T06:28:51.897Z,15.56
2023-05-12T06:31:19.158Z,15.55
2023-05-12T06:33:46.774Z,15.57
2023-05-12T06:36:14.183Z,15.62
2023-05-12T06:38:42.354Z,15.62
2023-05-12T06:41:09.497Z,15.62
2023-05-12T06:43:37.015Z,15.67
2023-05-12T06:46:04.201Z,15.70
2023-05-12T06:48:31.745Z,15.77
2023-05-12T06:50:58.932Z,15.85
2023-05-12T06:53:28.509Z,15.88
2023-05-12T06:55:56.320Z,15.85
2023-05-12T06:58:24.415Z,15.78
2023-05-12T07:03:37.213Z,15.80
2023-05-12T07:06:04.853Z,15.88
2023-05-12T07:08:32.435Z,15.92
2023-05-12T07:11:02.593Z,15.97
2023-05-12T07:13:30.142Z,16.13
2023-05-12T07:15:57.234Z,16.23
2023-05-12T07:18:25.284Z,16.39
2023-05-12T07:20:52.507Z,16.43
2023-05-12T07:23:22.605Z,16.41
2023-05-12T07:25:49.782Z,16.42
2023-05-12T07:28:17.819Z,16.50
2023-05-12T07:30:44.956Z,16.61
2023-05-12T07:33:13.016Z,16.78
2023-05-12T07:36:01.092Z,16.89
2023-05-12T07:38:46.366Z,17.09
2023-05-12T07:41:13.761Z,17.23
2023-05-12T07:43:40.857Z,17.30
2023-05-12T07:46:11.108Z,17.39
2023-05-12T07:48:40.328Z,17.50
2023-05-12T07:51:08.688Z,17.62
2023-05-12T07:53:37.927Z,17.81
2023-05-12T07:56:07.759Z,17.87
2023-05-12T07:58:35.630Z,17.85
2023-05-12T08:01:06.141Z,17.88
2023-05-12T08:03:35.265Z,17.87
2023-05-12T08:06:04.889Z,17.74
2023-05-12T08:08:32.090Z,17.65
2023-05-12T08:11:00.186Z,17.70
2023-05-12T08:13:28.819Z,17.66
2023-05-12T08:15:56.281Z,17.55
2023-05-12T08:18:23.461Z,17.51
2023-05-12T08:20:51.170Z,17.43
2023-05-12T08:23:18.586Z,17.41
2023-05-12T08:25:48.657Z,17.43
2023-05-12T08:31:01.494Z,17.61
2023-05-12T08:33:29.926Z,18.03
2023-05-12T08:35:57.445Z,18.54
2023-05-12T08:38:24.753Z,18.95
2023-05-12T08:41:19.648Z,19.01
2023-05-12T08:43:50.250Z,18.86
2023-05-12T08:46:33.064Z,18.83
2023-05-12T08:49:05.129Z,19.14
2023-05-12T08:51:33.350Z,20.30
2023-05-12T08:54:01.004Z,21.29
2023-05-12T08:59:01.494Z,23.70
2023-05-12T09:01:30.522Z,24.61
2023-05-12T09:03:57.718Z,25.13
2023-05-12T09:06:25.478Z,25.44
2023-05-12T09:08:52.994Z,24.83
2023-05-12T09:11:22.204Z,23.84
2023-05-12T09:14:07.360Z,23.07
2023-05-12T09:16:44.772Z,22.10
2023-05-12T09:19:12.161Z,21.11
2023-05-12T09:21:42.506Z,20.41
2023-05-12T09:24:15.050Z,20.15
2023-05-12T09:27:03.728Z,20.29
2023-05-12T09:29:33.498Z,20.54
2023-05-12T09:32:06.376Z,20.50
2023-05-12T09:34:37.233Z,20.22
2023-05-12T09:37:32.686Z,20.80
2023-05-12T09:40:11.646Z,21.78
2023-05-12T09:42:38.947Z,22.55
2023-05-12T09:45:09.480Z,23.63
2023-05-12T09:47:39.738Z,24.48
2023-05-12T09:50:08.942Z,23.82
2023-05-12T09:52:39.857Z,24.60
2023-05-12T09:55:13.415Z,25.63
2023-05-12T09:57:42.696Z,26.35
2023-05-12T10:00:31.286Z,26.87
2023-05-12T10:03:07.832Z,28.09
2023-05-12T10:05:37.284Z,28.14
2023-05-12T10:08:08.383Z,28.28
2023-05-12T10:10:37.321Z,27.94
2023-05-12T10:13:09.985Z,27.21
2023-05-12T10:15:38.472Z,26.86
2023-05-12T10:18:05.812Z,26.92
2023-05-12T10:20:38.790Z,26.36
2023-05-12T10:23:07.412Z,26.49
2023-05-12T10:25:37.376Z,25.74
2023-05-12T10:28:05.282Z,25.19
2023-05-12T10:30:33.554Z,24.64
2023-05-12T10:33:02.006Z,24.03
2023-05-12T10:35:34.976Z,23.39
2023-05-12T10:38:06.536Z,23.03
2023-05-12T10:40:34.405Z,22.75
2023-05-12T10:43:01.953Z,22.20
2023-05-12T10:45:36.706Z,21.92
2023-05-12T10:48:08.453Z,21.45
2023-05-12T10:50:36.057Z,21.40
2023-05-12T10:53:03.166Z,21.84
2023-05-12T10:55:52.557Z,23.37
2023-05-12T11:01:10.750Z,25.42
2023-05-12T11:03:39.772Z,25.37
2023-05-12T11:06:10.359Z,24.29
2023-05-12T11:08:37.916Z,23.05
2023-05-12T11:11:43.456Z,23.10
2023-05-12T11:14:12.338Z,24.63
2023-05-12T11:17:12.901Z,25.38
2023-05-12T11:19:44.843Z,25.95
2023-05-12T11:22:13.588Z,25.71
2023-05-12T11:24:42.465Z,25.37
2023-05-12T11:27:14.878Z,25.26
2023-05-12T11:29:45.012Z,24.29
2023-05-12T11:32:15.689Z,23.69
2023-05-12T11:34:43.228Z,23.32
2023-05-12T11:37:20.227Z,23.16
2023-05-12T11:42:50.270Z,23.61
2023-05-12T11:45:24.661Z,23.96
2023-05-12T11:47:54.132Z,23.25
2023-05-12T11:50:23.127Z,22.70
2023-05-12T11:52:51.741Z,22.17
2023-05-12T11:55:24.669Z,22.05
2023-05-12T11:58:01.215Z,21.64
2023-05-12T12:00:34.879Z,22.01
2023-05-12T12:03:13.704Z,22.23
2023-05-12T12:06:01.578Z,22.59
2023-05-12T12:08:29.064Z,22.85
2023-05-12T12:10:56.854Z,22.92
2023-05-12T12:13:25.993Z,22.98
2023-05-12T12:15:56.209Z,22.70
2023-05-12T12:18:24.874Z,22.02
2023-05-12T12:20:53.659Z,21.76
2023-05-12T12:23:20.965Z,21.87
2023-05-12T12:25:48.521Z,21.81
2023-05-12T12:28:15.948Z,21.90
2023-05-12T12:30:45.141Z,22.12
2023-05-12T12:33:16.869Z,22.59
2023-05-12T12:35:45.826Z,22.40
2023-05-12T12:38:13.206Z,21.65
2023-05-12T12:40:40.803Z,20.91
2023-05-12T12:43:08.055Z,20.51
2023-05-12T12:45:38.734Z,20.27
2023-05-12T12:48:07.056Z,20.23
2023-05-12T12:50:36.914Z,20.10
2023-05-12T12:53:07.442Z,19.87
2023-05-12T12:55:39.112Z,19.86
2023-05-12T12:58:07.235Z,20.02
2023-05-12T13:00:39.352Z,20.33
2023-05-12T13:03:08.982Z,20.50
2023-05-12T13:05:37.379Z,20.65
2023-05-12T13:08:10.633Z,20.75
2023-05-12T13:10:39.122Z,20.40
2023-05-12T13:13:06.505Z,20.14
2023-05-12T13:18:49.626Z,19.84
2023-05-12T13:21:41.072Z,19.81
2023-05-12T13:26:53.458Z,19.96
2023-05-12T13:29:20.841Z,19.97
2023-05-12T13:32:15.006Z,20.01
2023-05-12T13:35:01.037Z,20.08
2023-05-12T13:37:29.816Z,20.17
2023-05-12T13:40:10.484Z,20.16
2023-05-12T13:42:40.913Z,20.10
2023-05-12T13:45:09.482Z,20.18
2023-05-12T13:47:40.948Z,20.20
2023-05-12T13:50:09.213Z,20.20
2023-05-12T13:52:36.279Z,20.19
2023-05-12T13:55:10.982Z,20.17
2023-05-12T13:57:40.573Z,20.04
2023-05-12T14:00:11.316Z,20.04
2023-05-12T14:02:41.096Z,20.15
2023-05-12T14:05:09.331Z,20.17
2023-05-12T14:07:36.606Z,20.07
2023-05-12T14:10:06.111Z,20.01
2023-05-12T14:12:37.399Z,19.91
2023-05-12T14:15:24.007Z,19.77
2023-05-12T14:17:58.731Z,19.72
2023-05-12T14:20:27.866Z,19.74
2023-05-12T14:22:56.829Z,19.72
2023-05-12T14:25:25.348Z,19.59
2023-05-12T14:27:55.881Z,19.55
2023-05-12T14:30:23.934Z,19.65
2023-05-12T14:32:51.400Z,19.66
2023-05-12T14:35:20.116Z,19.69
2023-05-12T14:37:49.396Z,19.74
2023-05-12T14:40:18.641Z,19.66
2023-05-12T14:42:54.479Z,19.55
2023-05-12T14:45:22.550Z,19.45
2023-05-12T14:47:50.091Z,19.44
2023-05-12T14:50:21.016Z,19.38
2023-05-12T14:52:52.523Z,19.28
2023-05-12T14:55:23.350Z,19.21
2023-05-12T14:57:50.655Z,19.17
2023-05-12T15:00:30.183Z,19.09
2023-05-12T15:02:57.806Z,19.02
2023-05-12T15:05:41.189Z,18.92
2023-05-12T15:10:59.468Z,18.85
2023-05-12T15:13:26.999Z,18.80
2023-05-12T15:15:58.694Z,18.76
2023-05-12T15:18:28.453Z,18.72
2023-05-12T15:21:04.195Z,18.67
2023-05-12T15:23:35.606Z,18.70
2023-05-12T15:26:27.249Z,18.71
2023-05-12T15:28:59.072Z,18.70
2023-05-12T15:34:11.571Z,18.61
2023-05-12T15:36:39.567Z,18.55
2023-05-12T15:39:08.611Z,18.48
2023-05-12T15:41:38.187Z,18.44
2023-05-12T15:44:07.207Z,18.37
2023-05-12T15:46:36.439Z,18.33
2023-05-12T15:49:08.114Z,18.29
2023-05-12T15:51:51.744Z,18.25
2023-05-12T15:54:19.784Z,18.24
2023-05-12T15:56:51.145Z,18.16
2023-05-12T15:59:20.635Z,18.13
2023-05-12T16:01:50.910Z,18.08
2023-05-12T16:04:18.549Z,18.05
2023-05-12T16:06:46.463Z,18.03
2023-05-12T16:09:16.353Z,17.98
2023-05-12T16:11:46.213Z,17.93
2023-05-12T16:14:16.914Z,17.90
2023-05-12T16:16:59.849Z,17.89
2023-05-12T16:19:27.422Z,17.86
2023-05-12T16:21:58.043Z,17.83
2023-05-12T16:24:28.590Z,17.81
2023-05-12T16:26:56.763Z,17.80
2023-05-12T16:29:24.880Z,17.79
2023-05-12T16:31:52.106Z,17.76
2023-05-12T16:34:29.482Z,17.72
2023-05-12T16:36:57.081Z,17.69
2023-05-12T16:39:38.943Z,17.64
2023-05-12T16:42:07.723Z,17.55
2023-05-12T16:44:37.085Z,17.50
2023-05-12T16:47:04.771Z,17.43
2023-05-12T16:49:32.436Z,17.32
2023-05-12T16:51:59.692Z,17.23
2023-05-12T16:54:31.902Z,17.12
2023-05-12T16:57:03.488Z,17.02
2023-05-12T16:59:32.633Z,16.92
2023-05-12T17:02:06.441Z,16.84
2023-05-12T17:04:34.653Z,16.75
2023-05-12T17:07:05.105Z,16.64
2023-05-12T17:09:35.227Z,16.58
2023-05-12T17:12:04.825Z,16.51
2023-05-12T17:14:34.751Z,16.45
2023-05-12T17:17:02.462Z,16.38
2023-05-12T17:19:33.809Z,16.32
2023-05-12T17:22:01.413Z,16.25
2023-05-12T17:24:29.631Z,16.19
2023-05-12T17:26:57.720Z,16.13
2023-05-12T17:29:39.728Z,16.03
2023-05-12T17:32:07.795Z,15.95
2023-05-12T17:34:38.260Z,15.90
2023-05-12T17:37:06.625Z,15.82
2023-05-12T17:39:34.383Z,15.77
2023-05-12T17:42:13.503Z,15.73
2023-05-12T17:44:43.381Z,15.70
2023-05-12T17:47:13.995Z,15.64
2023-05-12T17:49:42.610Z,15.62
2023-05-12T17:52:19.732Z,15.56
2023-05-12T17:54:47.260Z,15.52
2023-05-12T17:57:15.812Z,15.50
2023-05-12T17:59:43.673Z,15.46
2023-05-12T18:02:13.555Z,15.47
2023-05-12T18:04:41.905Z,15.43
2023-05-12T18:07:09.481Z,15.42
2023-05-12T18:09:38.981Z,15.38
2023-05-12T18:12:10.150Z,15.37
2023-05-12T18:14:37.523Z,15.35
2023-05-12T18:17:05.483Z,15.33
2023-05-12T18:19:32.740Z,15.30
2023-05-12T18:22:49.341Z,15.29
2023-05-12T18:24:53.028Z,15.29
2023-05-12T18:27:20.662Z,15.29
2023-05-12T18:29:47.786Z,15.23
2023-05-12T18:35:39.377Z,15.17
2023-05-12T18:38:13.211Z,15.12
2023-05-12T18:40:40.476Z,15.11
2023-05-12T18:43:07.963Z,15.07
2023-05-12T18:45:37.795Z,15.11
2023-05-12T18:48:05.781Z,15.08
2023-05-12T18:50:32.904Z,15.08
2023-05-12T18:53:00.575Z,15.08
2023-05-12T18:55:32.069Z,15.07
2023-05-12T18:57:59.641Z,15.05
2023-05-12T19:00:32.475Z,15.01
2023-05-12T19:03:03.186Z,15.06
2023-05-12T19:05:33.938Z,15.03
2023-05-12T19:08:02.501Z,14.99
2023-05-12T19:10:38.549Z,14.95
2023-05-12T19:13:07.258Z,14.92
2023-05-12T19:15:34.656Z,14.89
2023-05-12T19:18:02.153Z,14.84
2023-05-12T19:20:30.774Z,14.82
2023-05-12T19:22:59.859Z,14.81
2023-05-12T19:25:27.236Z,14.83
2023-05-12T19:27:55.037Z,14.83
2023-05-12T19:30:23.891Z,14.77
2023-05-12T19:32:51.822Z,14.74
2023-05-12T19:35:19.666Z,14.68
2023-05-12T19:37:47.453Z,14.57
2023-05-12T19:40:14.744Z,14.51
2023-05-12T19:42:42.751Z,14.42
2023-05-12T19:45:10.725Z,14.37
2023-05-12T19:47:38.338Z,14.30
2023-05-12T19:50:06.100Z,14.23
2023-05-12T19:52:34.575Z,14.17
2023-05-12T19:55:01.668Z,14.12
2023-05-12T19:57:32.052Z,14.08
2023-05-12T19:59:59.468Z,14.02
2023-05-12T20:02:30.953Z,13.99
2023-05-12T20:05:01.733Z,13.97
2023-05-12T20:07:29.438Z,13.89
2023-05-12T20:09:57.721Z,13.79
2023-05-12T20:12:25.287Z,13.73
2023-05-12T20:14:52.324Z,13.66
2023-05-12T20:17:21.883Z,13.63
2023-05-12T20:19:50.517Z,13.63
2023-05-12T20:22:20.756Z,13.61
2023-05-12T20:24:48.845Z,13.57
2023-05-12T20:27:19.253Z,13.59
2023-05-12T20:29:46.383Z,13.57
2023-05-12T20:32:15.154Z,13.57
2023-05-12T20:34:43.060Z,13.54
2023-05-12T20:37:11.000Z,13.54
2023-05-12T20:39:37.990Z,13.53
2023-05-12T20:42:06.438Z,13.51
2023-05-12T20:44:33.571Z,13.49
2023-05-12T20:47:03.298Z,13.46
2023-05-12T20:49:30.897Z,13.45
2023-05-12T20:51:58.355Z,13.42
2023-05-12T20:54:25.583Z,13.40
2023-05-12T20:56:53.150Z,13.39
2023-05-12T20:59:20.178Z,13.36
2023-05-12T21:01:47.739Z,13.33
2023-05-12T21:04:15.176Z,13.29
2023-05-12T21:06:43.745Z,13.30
2023-05-12T21:09:10.653Z,13.33
2023-05-12T21:11:39.345Z,13.37
2023-05-12T21:14:07.396Z,13.37
2023-05-12T21:16:35.368Z,13.37
2023-05-12T21:19:05.448Z,13.33
2023-05-12T21:21:32.905Z,13.29
2023-05-12T21:24:00.053Z,13.27
2023-05-12T21:26:43.846Z,13.22
2023-05-12T21:29:14.085Z,13.21
2023-05-12T21:31:41.460Z,13.18
2023-05-12T21:34:09.975Z,13.14
2023-05-12T21:36:37.336Z,13.14
2023-05-12T21:39:04.893Z,13.10
2023-05-12T21:41:32.685Z,13.07
2023-05-12T21:43:59.705Z,13.01
2023-05-12T21:46:27.242Z,12.99
2023-05-12T21:48:54.722Z,12.93
2023-05-12T21:51:22.113Z,12.90
2023-05-12T21:53:49.215Z,12.82
2023-05-12T21:56:19.372Z,12.77
2023-05-12T21:58:46.322Z,12.69
2023-05-12T22:01:15.367Z,12.63
2023-05-12T22:03:54.002Z,12.57
2023-05-12T22:06:35.648Z,12.47
2023-05-12T22:09:02.862Z,12.43
2023-05-12T22:11:30.171Z,12.38
2023-05-12T22:13:57.327Z,12.33
2023-05-12T22:16:31.168Z,12.28
2023-05-12T22:19:01.629Z,12.24
2023-05-12T22:21:29.046Z,12.21
2023-05-12T22:23:57.226Z,12.21
2023-05-12T22:26:24.515Z,12.19
2023-05-12T22:28:51.468Z,12.22
2023-05-12T22:31:18.878Z,12.24
2023-05-12T22:33:45.864Z,12.26
2023-05-12T22:36:13.135Z,12.24
2023-05-12T22:38:40.156Z,12.25
2023-05-12T22:41:07.398Z,12.23
2023-05-12T22:43:34.376Z,12.25
2023-05-12T22:46:01.640Z,12.27
2023-05-12T22:48:30.586Z,12.26
2023-05-12T22:50:59.336Z,12.31
2023-05-12T22:53:28.306Z,12.30
2023-05-12T22:55:55.858Z,12.30
2023-05-12T22:58:22.865Z,12.27
2023-05-12T23:00:50.192Z,12.25
2023-05-12T23:03:17.125Z,12.24
2023-05-12T23:05:44.422Z,12.20
2023-05-12T23:08:11.368Z,12.17
2023-05-12T23:10:38.638Z,12.15
2023-05-12T23:13:05.583Z,12.13
2023-05-12T23:15:32.891Z,12.10
2023-05-12T23:17:59.936Z,12.11
2023-05-12T23:20:27.462Z,12.09
2023-05-12T23:22:54.468Z,12.08
2023-05-12T23:25:21.978Z,12.03
2023-05-12T23:27:48.972Z,11.99
2023-05-12T23:30:16.757Z,11.98
2023-05-12T23:32:45.661Z,11.95
2023-05-12T23:35:14.081Z,11.94
2023-05-12T23:37:41.061Z,11.92
2023-05-12T23:40:08.900Z,11.90
2023-05-12T23:42:36.160Z,11.86
2023-05-12T23:45:03.677Z,11.86
2023-05-12T23:47:30.865Z,11.84
2023-05-12T23:49:58.321Z,11.85
2023-05-12T23:52:25.533Z,11.80
2023-05-12T23:54:53.276Z,11.79
2023-05-12T23:57:20.460Z,11.77
2023-05-12T23:59:48.795Z,11.79
